Pemaquid Point Lighthouse, ME

43° 50' 13"N, 69° 30' 22"W, Elevation 40 ft.
Eastern Time

Hourly observations for the last 72 hours

Date Time Temperature (°F) Humi-
dity

(%)
Wind
(mph)
Pressure Rain (in) Sun
(W/m2)
UV ET
(in)
Air Dew 6 Hour 1 Hr 3 Hr 6 Hr Day
Alt
(in)
Sea
Level

(mb)
Max Min
12 12:00 27.3 12.4 53 W 10 G 18 30.60 1036.4 0.00 283 0.9 0.029
12 11:00 26.6 11.3 52 W 16 G 23 30.61 1036.5 0.00 237 0.8 0.023
12 10:00 25.8 10.2 51 W 18 G 25 30.62 1036.9 0.00 418 0.8 0.018
12 09:00 24.2 10.4 55 W 8 G 15 30.61 1036.8 0.00 37 0.0 0.016
12 08:00 23.2 9.8 56 WNW 7 G 17 30.58 1035.8 0.00 23 0.0 0.014
12 07:00 23.4 11.2 28.6 23.3 59 W 12 G 18 30.54 1034.3 0.00 0 0.0 0.012
12 06:00 24.2 11.9 59 WNW 13 G 28 30.50 1033.0 0.00 0 0.0 0.010
12 05:00 24.8 12.5 59 WNW 17 G 25 30.45 1031.2 0.00 0 0.0 0.008
12 04:00 25.8 13.8 60 WNW 18 G 30 30.41 1029.9 0.00 0 0.0 0.005
12 03:00 27.1 18.6 70 WNW 16 G 24 30.37 1028.3 0.00 0 0.0 0.003
12 02:00 27.8 19.6 71 W 12 G 19 30.33 1027.2 0.00 0 0.0 0.002
12 01:00 28.6 20.7 32.9 25.9 72 WNW 10 G 24 30.28 1025.5 0.00 0 0.0 0.000
12 00:00 32.1 22.7 68 W 18 G 27 30.22 1023.5 0.13 0 0.0 0.016
11 23:00 32.8 23.8 69 W 16 G 27 30.20 1022.7 0.13 0 0.0 0.014
11 22:00 32.7 24.3 71 W 12 G 22 30.20 1022.7 0.13 0 0.0 0.013
11 21:00 31.9 24.6 74 W 9 G 15 30.20 1022.6 0.13 0 0.0 0.012
11 20:00 28.3 23.2 81 WNW 5 G 9 30.20 1022.9 0.13 0 0.0 0.011
11 19:00 26.7 21.7 30.1 26.5 81 NNW 5 G 7 30.21 1023.1 0.13 0 0.0 0.010
11 18:00 26.8 21.5 80 NNW 5 G 8 30.20 1022.8 0.13 0 0.0 0.009
11 17:00 29.2 20.6 70 SSW 3 G 10 30.18 1022.1 0.13 0 0.0 0.009
11 16:00 27.9 22.2 79 N 2 G 3 30.16 1021.3 0.13 5 0.0 0.008
11 15:00 29.0 21.8 74 N 2 G 4 30.15 1021.1 0.13 39 0.0 0.007
11 14:00 29.8 21.2 70 N 3 G 7 30.16 1021.5 0.13 76 0.0 0.003
11 13:00 29.1 22.8 29.1 27.5 77 NNW 3 G 6 30.17 1021.6 0.01 0.01 0.01 0.13 179 0.0 0.002
11 12:00 28.0 23.2 82 N 3 G 5 30.17 1021.7 0.12 58 0.0 0.001
11 11:00 27.6 23.1 83 NNW 4 G 6 30.19 1022.5 0.12 30 0.0 0.001
11 10:00 27.7 22.9 82 N 3 G 7 30.19 1022.5 0.12 16 0.0 0.001
11 09:00 27.9 24.0 85 N 2 G 8 30.18 1022.0 0.12 12 0.0 0.001
11 08:00 28.1 24.5 86 NNW 8 G 15 30.16 1021.4 0.12 0 0.0 0.001
11 07:00 28.0 25.2 36.1 28.0 89 NNW 7 G 14 30.15 1021.1 0.06 0.12 0 0.0 0.001
11 06:00 28.7 26.7 92 N 8 G 20 30.12 1020.1 0.12 0 0.0 0.001
11 05:00 30.8 29.0 93 N 4 G 10 30.09 1019.2 0.12 0 0.0 0.001
11 04:00 31.7 29.6 92 WNW 7 G 16 30.09 1019.1 0.06 0.12 0 0.0 0.001
11 03:00 33.6 31.3 91 NNW 7 G 13 30.02 1016.7 0.02 0.12 0 0.0 0.001
11 02:00 34.7 32.3 91 WNW 4 G 17 30.01 1016.5 0.04 0.10 0 0.0 0.001
11 01:00 36.1 33.5 48.9 36.0 90 WNW 4 G 9 29.99 1015.7 0.06 0.14 0.28 0.06 0 0.0 0.000
11 00:00 38.3 35.1 88 NW 6 G 17 29.95 1014.2 0.06 0.33 0 0.0 0.028
10 23:00 41.5 37.0 84 WNW 11 G 18 29.93 1013.6 0.02 0.27 0 0.0 0.027
10 22:00 42.8 39.8 89 NW 5 G 9 29.88 1011.8 0.01 0.14 0.25 0 0.0 0.026
10 21:00 45.6 42.8 90 W 5 G 20 29.84 1010.6 0.07 0.24 0 0.0 0.025
10 20:00 47.6 46.0 94 W 8 G 16 29.81 1009.7 0.06 0.17 0 0.0 0.025
10 19:00 48.9 47.3 49.6 48.6 94 W 9 G 19 29.75 1007.4 0.03 0.06 0.06 0.11 0 0.0 0.025
10 18:00 49.4 47.7 94 WSW 11 G 18 29.71 1006.2 0.01 0.08 0 0.0 0.025
10 17:00 49.2 47.5 94 SW 16 G 23 29.67 1004.7 0.02 0.07 0 0.0 0.024
10 16:00 49.0 47.3 94 SSW 15 G 21 29.65 1003.9 0.05 0 0.0 0.023
10 15:00 49.0 47.3 94 SSW 15 G 20 29.64 1003.9 0.05 5 0.0 0.022
10 14:00 48.9 47.3 94 SW 14 G 18 29.63 1003.5 0.05 37 0.0 0.021
10 13:00 49.6 47.9 50.0 48.3 94 SW 14 G 18 29.63 1003.4 0.05 67 0.0 0.018
10 12:00 49.5 47.6 93 SSW 12 G 16 29.64 1003.7 0.05 151 0.8 0.014
10 11:00 49.3 47.6 94 SSW 13 G 18 29.67 1004.8 0.05 197 0.8 0.010
10 10:00 49.9 48.2 94 SW 13 G 18 29.68 1005.2 0.05 218 0.7 0.006
10 09:00 48.9 47.5 95 SW 13 G 17 29.67 1004.7 0.05 47 0.0 0.005
10 08:00 49.0 47.6 95 SW 15 G 24 29.66 1004.4 0.05 16 0.0 0.004
10 07:00 48.3 46.9 51.0 48.2 95 SSW 14 G 19 29.65 1004.1 0.05 0 0.0 0.004
10 06:00 48.7 47.3 95 SSW 15 G 19 29.63 1003.5 0.05 0 0.0 0.004
10 05:00 48.9 47.5 95 SW 7 G 19 29.62 1003.0 0.05 0 0.0 0.004
10 04:00 49.1 47.7 95 SW 15 G 24 29.60 1002.4 0.05 0 0.0 0.003
10 03:00 49.6 48.2 95 SSW 20 G 24 29.58 1001.8 0.05 0 0.0 0.002
10 02:00 50.4 49.0 95 SSW 22 G 29 29.59 1001.9 0.05 0 0.0 0.001
10 01:00 50.7 49.3 51.7 49.9 95 SSW 25 G 34 29.58 1001.6 0.05 0.39 1.18 0.05 0 0.0 0.000
10 00:00 51.2 49.8 95 S 32 G 38 29.59 1002.2 0.14 2.18 0 0.0 0.023
9 23:00 50.7 49.3 95 S 25 G 31 29.63 1003.4 0.20 2.06 0 0.0 0.022
9 22:00 50.5 49.1 95 S 26 G 34 29.68 1005.0 0.20 0.79 1.85 0 0.0 0.021
9 21:00 50.3 48.6 94 S 29 G 34 29.71 1006.3 0.34 1.65 0 0.0 0.020
9 20:00 50.2 48.5 94 S 28 G 35 29.77 1008.1 0.25 1.31 0 0.0 0.019
9 19:00 50.6 48.9 51.1 46.2 94 S 28 G 37 29.81 1009.7 0.08 0.49 0.92 1.06 0 0.0 0.018
9 18:00 50.8 49.1 94 S 33 G 41 29.85 1010.8 0.16 0.97 0 0.0 0.017
9 17:00 49.8 48.1 94 S 28 G 37 29.88 1011.8 0.25 0.81 0 0.0 0.016
9 16:00 50.2 48.5 94 S 26 G 34 29.92 1013.1 0.07 0.43 0.56 0 0.0 0.015
9 15:00 48.4 46.8 94 SSE 21 G 25 29.96 1014.7 0.20 0.49 0 0.0 0.014
9 14:00 47.4 45.8 94 SSE 15 G 19 30.02 1016.6 0.16 0.29 12 0.0 0.013
9 13:00 46.2 44.6 46.2 42.7 94 S 4 G 5 30.08 1018.5 0.09 0.12 0.13 0.13 23 0.0 0.012

Data generated by WxSolution Version 1.9.1.5, Build 2018.05.20.